Siesta Key, Florida
Current Conditions -  °F | °C
As of 10:53 PM on Saturday 20 Dec 2014 (Local Time) from KSRQ Reporting Station
Overcast Overcast  
Wind Chill: 66°   Ceiling: 9000
Heat Index: 66°   Visibility: 10mi
Dew Point: 62°   Wind: 3mph
Humidity: 87%   Direction: 60°ENE
Pressure: 30.07"   Gusts: NA
Location:  27.2613°N, 82.5431°W
Report Text: KSRQ 210353Z AUTO 06003KT 10SM OVC090 19/17 A3007 RMK AO2 SLP183 T01890167
Loading
Personal Weather Stations






























Interactive Weather Map New forecast layout! Learn more

10-Day Weather Forecast

Advertisements
Track Severe Weather on mobile